Time;durP1;ratioP1;P1;durP2;ratioP2;P2;SDS_P1;SDS_P2;PMS_P1;PMS_P2;Temp;Humidity;BMP_temperature;BMP_pressure;BME280_temperature;BME280_humidity;BME280_pressure;Samples;Min_cycle;Max_cycle;Signal;HPM_P1;HPM_P2
2022/10/30 00:00:26;;;;;;;16.83;11.50;;;18.20;99.90;;;;;;4955763;28;20534;-76
2022/10/30 00:02:51;;;;;;;15.13;10.70;;;18.20;99.90;;;;;;4956562;28;20445;-76
2022/10/30 00:05:19;;;;;;;16.40;11.77;;;18.20;99.90;;;;;;4955624;28;20195;-73
2022/10/30 00:07:45;;;;;;;19.20;10.70;;;18.10;99.90;;;;;;4965326;28;20186;-74
2022/10/30 00:10:11;;;;;;;19.70;11.07;;;18.10;99.90;;;;;;4959649;28;20924;-74
2022/10/30 00:12:36;;;;;;;16.10;10.33;;;18.10;99.90;;;;;;4960229;28;20481;-74
2022/10/30 00:15:03;;;;;;;16.70;10.67;;;17.90;99.90;;;;;;4954550;28;20968;-75
2022/10/30 00:17:28;;;;;;;18.60;10.23;;;17.80;99.90;;;;;;4957720;28;20249;-74
2022/10/30 00:19:54;;;;;;;15.53;9.63;;;17.90;99.90;;;;;;4958104;28;20473;-74
2022/10/30 00:22:20;;;;;;;14.47;9.03;;;17.90;99.90;;;;;;4954659;28;20357;-74
2022/10/30 00:24:45;;;;;;;14.17;10.03;;;17.90;99.90;;;;;;4953959;28;20206;-74
2022/10/30 00:27:11;;;;;;;12.57;8.73;;;17.90;99.90;;;;;;4951673;28;20191;-74
2022/10/30 00:29:36;;;;;;;15.07;7.90;;;18.00;99.90;;;;;;4974073;28;20206;-75
2022/10/30 00:32:02;;;;;;;13.63;8.17;;;17.90;99.90;;;;;;4959481;28;20203;-74
2022/10/30 00:34:27;;;;;;;12.47;8.20;;;17.90;99.90;;;;;;4956477;28;20214;-74
2022/10/30 00:36:53;;;;;;;18.53;9.40;;;17.90;99.90;;;;;;4948082;28;20190;-74
2022/10/30 00:39:18;;;;;;;13.53;7.80;;;17.90;99.90;;;;;;4957970;28;20277;-75
2022/10/30 00:41:44;;;;;;;11.40;8.57;;;18.00;99.90;;;;;;4949503;28;20742;-75
2022/10/30 00:44:46;;;;;;;17.50;8.67;;;17.90;99.90;;;;;;4953924;28;20550;-75
2022/10/30 00:47:22;;;;;;;10.50;7.27;;;18.00;99.90;;;;;;4974696;28;20452;-74
2022/10/30 00:50:03;;;;;;;14.40;7.97;;;18.00;99.90;;;;;;4984242;28;20473;-76
2022/10/30 00:52:32;;;;;;;11.97;8.00;;;18.00;99.90;;;;;;4957442;28;20614;-75
2022/10/30 00:55:04;;;;;;;14.80;8.17;;;18.00;99.90;;;;;;4951821;28;20482;-76
2022/10/30 00:57:30;;;;;;;15.00;9.27;;;17.90;99.90;;;;;;4952775;28;20488;-76
2022/10/30 00:59:56;;;;;;;14.00;8.77;;;18.00;99.90;;;;;;4953883;28;20467;-75
2022/10/30 01:02:21;;;;;;;13.60;8.50;;;17.90;99.90;;;;;;4953664;28;20474;-75
2022/10/30 01:04:48;;;;;;;13.60;8.90;;;17.90;99.90;;;;;;4952934;28;20884;-75
2022/10/30 01:07:15;;;;;;;16.00;9.03;;;17.90;99.90;;;;;;4957534;28;20183;-75
2022/10/30 01:09:41;;;;;;;13.57;8.60;;;17.90;99.90;;;;;;4947401;28;20455;-75
2022/10/30 01:12:07;;;;;;;12.73;8.80;;;17.80;99.90;;;;;;4940570;28;20449;-75
2022/10/30 01:14:39;;;;;;;13.00;7.73;;;17.80;99.90;;;;;;4949107;28;20469;-75
2022/10/30 01:17:43;;;;;;;16.33;9.00;;;17.80;99.90;;;;;;4946461;28;20191;-76
2022/10/30 01:20:34;;;;;;;13.83;7.40;;;17.80;99.90;;;;;;4956708;28;20468;-75
2022/10/30 01:23:23;;;;;;;14.53;8.00;;;17.80;99.90;;;;;;4951150;28;20482;-75
2022/10/30 01:26:05;;;;;;;16.87;8.17;;;17.70;99.90;;;;;;4957904;28;20504;-75
2022/10/30 01:29:07;;;;;;;13.30;7.77;;;17.80;99.90;;;;;;4955217;28;20895;-75
2022/10/30 01:31:33;;;;;;;12.00;7.20;;;17.80;99.90;;;;;;4960666;28;20884;-75
2022/10/30 01:34:19;;;;;;;10.40;8.37;;;17.80;99.90;;;;;;4962358;28;20446;-75
2022/10/30 01:37:01;;;;;;;13.03;7.77;;;17.80;99.90;;;;;;4980412;28;20178;-75
2022/10/30 01:39:31;;;;;;;12.53;8.30;;;17.80;99.90;;;;;;4967583;28;20529;-75
2022/10/30 01:41:57;;;;;;;12.70;7.87;;;17.70;99.90;;;;;;4963122;28;20484;-74
2022/10/30 01:44:30;;;;;;;12.47;8.60;;;17.70;99.90;;;;;;4956080;28;20738;-75
2022/10/30 01:47:07;;;;;;;13.30;7.70;;;17.70;99.90;;;;;;4959440;28;20186;-78
2022/10/30 01:49:45;;;;;;;13.47;8.00;;;17.70;99.90;;;;;;4956188;28;20446;-76
2022/10/30 01:52:29;;;;;;;14.17;8.80;;;17.70;99.90;;;;;;4959268;28;20454;-76
2022/10/30 01:55:17;;;;;;;12.47;7.30;;;17.70;99.90;;;;;;4951006;28;20480;-75
2022/10/30 01:58:12;;;;;;;10.77;8.00;;;17.70;99.90;;;;;;4954986;28;20446;-75
2022/10/30 02:00:41;;;;;;;18.40;8.10;;;17.70;99.90;;;;;;4953853;28;20465;-75
2022/10/30 02:03:06;;;;;;;13.63;8.37;;;17.70;99.90;;;;;;4962158;28;20453;-76
2022/10/30 02:05:39;;;;;;;9.60;8.43;;;17.60;99.90;;;;;;4967448;28;20445;-76
2022/10/30 02:08:05;;;;;;;12.33;8.60;;;17.60;99.90;;;;;;4951408;28;20191;-75
2022/10/30 02:10:33;;;;;;;13.10;6.93;;;17.60;99.90;;;;;;4959116;28;20461;-75
2022/10/30 02:13:00;;;;;;;17.63;9.20;;;17.60;99.90;;;;;;4950635;28;20446;-76
2022/10/30 02:15:25;;;;;;;11.53;7.40;;;17.60;99.90;;;;;;4953727;28;20497;-77
2022/10/30 02:17:51;;;;;;;16.50;7.60;;;17.60;99.90;;;;;;4952012;28;20458;-76
2022/10/30 02:20:18;;;;;;;16.80;8.50;;;17.60;99.90;;;;;;4950203;28;20214;-76
2022/10/30 02:22:45;;;;;;;11.70;8.73;;;17.50;99.90;;;;;;4963700;28;20551;-76
2022/10/30 02:25:10;;;;;;;16.23;8.33;;;17.50;99.90;;;;;;4974400;28;20837;-76
2022/10/30 02:27:36;;;;;;;15.23;7.30;;;17.50;99.90;;;;;;4970615;28;20777;-76
2022/10/30 02:30:02;;;;;;;11.60;7.47;;;17.50;99.90;;;;;;4954987;28;20239;-75
2022/10/30 02:32:28;;;;;;;12.63;7.53;;;17.50;99.90;;;;;;4955658;28;20274;-76
2022/10/30 02:34:53;;;;;;;20.10;9.07;;;17.40;99.90;;;;;;4956764;28;20480;-75
2022/10/30 02:37:19;;;;;;;10.77;8.00;;;17.40;99.90;;;;;;4961579;28;20183;-76
2022/10/30 02:39:44;;;;;;;14.70;8.40;;;17.40;99.90;;;;;;4953231;28;20245;-76
2022/10/30 02:42:10;;;;;;;17.33;10.23;;;17.30;99.90;;;;;;4963505;28;20717;-76
2022/10/30 02:44:36;;;;;;;14.80;9.37;;;17.30;99.90;;;;;;4986908;28;20679;-76
2022/10/30 02:47:01;;;;;;;15.87;8.20;;;17.30;99.90;;;;;;4956698;28;20228;-76
2022/10/30 02:49:27;;;;;;;11.47;8.60;;;17.20;99.90;;;;;;4957339;28;20189;-75
2022/10/30 02:51:52;;;;;;;11.40;9.00;;;17.20;99.90;;;;;;4955935;28;20726;-75
2022/10/30 02:54:18;;;;;;;11.83;7.37;;;17.20;99.90;;;;;;4954558;28;20869;-75
2022/10/30 02:56:43;;;;;;;15.47;8.03;;;17.20;99.90;;;;;;4960544;28;20708;-76
2022/10/30 02:59:09;;;;;;;11.00;7.30;;;17.20;99.90;;;;;;4954997;28;20273;-76
2022/10/30 03:01:34;;;;;;;12.20;7.87;;;17.10;99.90;;;;;;4983449;28;20261;-75
2022/10/30 03:04:00;;;;;;;10.53;7.77;;;17.10;99.90;;;;;;4958036;28;20280;-76
2022/10/30 03:06:26;;;;;;;13.53;8.20;;;17.10;99.90;;;;;;4951225;28;20552;-76
2022/10/30 03:08:51;;;;;;;12.23;9.23;;;17.10;99.90;;;;;;4957372;28;20273;-77
2022/10/30 03:11:18;;;;;;;10.70;6.97;;;17.10;99.90;;;;;;4963970;28;20210;-75
2022/10/30 03:13:45;;;;;;;11.53;7.33;;;17.10;99.90;;;;;;4952090;28;20195;-76
2022/10/30 03:16:13;;;;;;;10.83;7.63;;;17.00;99.90;;;;;;4953884;28;20804;-75
2022/10/30 03:18:39;;;;;;;11.07;7.17;;;17.00;99.90;;;;;;4959499;28;20479;-75
2022/10/30 03:21:07;;;;;;;13.50;7.00;;;17.00;99.90;;;;;;4964930;28;20612;-76
2022/10/30 03:23:34;;;;;;;10.63;7.37;;;17.00;99.90;;;;;;4958245;28;20441;-74
2022/10/30 03:25:59;;;;;;;10.83;7.30;;;16.90;99.90;;;;;;4953028;28;20443;-77
2022/10/30 03:28:28;;;;;;;15.97;8.97;;;16.90;99.90;;;;;;4955119;28;20548;-75
2022/10/30 03:31:00;;;;;;;8.47;7.00;;;16.90;99.90;;;;;;4950825;28;20242;-75
2022/10/30 03:33:26;;;;;;;12.67;7.20;;;16.90;99.90;;;;;;4952466;28;20442;-74
2022/10/30 03:35:51;;;;;;;15.07;7.60;;;16.80;99.90;;;;;;4950865;28;20481;-74
2022/10/30 03:38:17;;;;;;;11.40;7.30;;;16.80;99.90;;;;;;4953597;28;20194;-75
2022/10/30 03:40:43;;;;;;;13.50;7.17;;;16.80;99.90;;;;;;4971102;28;20380;-75
2022/10/30 03:43:09;;;;;;;16.50;9.10;;;16.80;99.90;;;;;;4975208;28;20199;-75
2022/10/30 03:45:35;;;;;;;15.37;6.70;;;16.80;99.90;;;;;;4957270;28;20277;-76
2022/10/30 03:48:01;;;;;;;12.67;7.27;;;16.80;99.90;;;;;;4963416;28;20852;-76
2022/10/30 03:50:27;;;;;;;12.10;7.30;;;16.70;99.90;;;;;;4958711;28;20215;-75
2022/10/30 03:52:56;;;;;;;11.50;6.50;;;16.70;99.90;;;;;;4957403;28;20480;-75
2022/10/30 03:55:22;;;;;;;13.67;6.87;;;16.70;99.90;;;;;;4959585;28;20469;-76
2022/10/30 03:57:47;;;;;;;11.97;6.60;;;16.70;99.90;;;;;;4955253;28;20810;-76
2022/10/30 04:00:14;;;;;;;10.27;6.97;;;16.70;99.90;;;;;;4965636;28;20453;-76
2022/10/30 04:02:46;;;;;;;14.07;7.20;;;16.70;99.90;;;;;;4973815;28;20187;-76
2022/10/30 04:05:13;;;;;;;12.07;7.20;;;16.60;99.90;;;;;;4954529;28;20486;-76
2022/10/30 04:07:39;;;;;;;8.67;7.10;;;16.60;99.90;;;;;;4955613;28;20439;-75
2022/10/30 04:10:05;;;;;;;8.43;6.33;;;16.60;99.90;;;;;;4959857;28;21113;-75
2022/10/30 04:12:30;;;;;;;9.20;7.43;;;16.60;99.90;;;;;;4955575;28;20195;-75
2022/10/30 04:14:56;;;;;;;10.83;7.67;;;16.60;99.90;;;;;;4957724;28;20665;-75
2022/10/30 04:17:21;;;;;;;9.43;6.53;;;16.50;99.90;;;;;;4957038;28;20217;-75
2022/10/30 04:19:47;;;;;;;12.40;6.70;;;16.50;99.90;;;;;;4959831;28;20213;-74
2022/10/30 04:22:12;;;;;;;12.50;6.80;;;16.50;99.90;;;;;;4959877;28;20788;-75
2022/10/30 04:24:38;;;;;;;10.20;7.47;;;16.50;99.90;;;;;;4953230;28;20193;-74
2022/10/30 04:27:04;;;;;;;11.83;6.40;;;16.40;99.90;;;;;;4955388;28;20774;-74
2022/10/30 04:29:30;;;;;;;10.33;6.73;;;16.40;99.90;;;;;;4954768;28;20187;-75
2022/10/30 04:31:55;;;;;;;9.30;6.23;;;16.40;99.90;;;;;;4956168;28;20877;-75
2022/10/30 04:34:21;;;;;;;9.57;6.63;;;16.40;99.90;;;;;;4957308;28;20215;-77
2022/10/30 04:36:46;;;;;;;10.53;6.57;;;16.40;99.90;;;;;;4980646;28;20668;-77
2022/10/30 04:39:12;;;;;;;12.93;7.33;;;16.40;99.90;;;;;;4939142;28;20187;-76
2022/10/30 04:41:38;;;;;;;13.93;7.13;;;16.40;99.90;;;;;;4956877;28;20285;-76
2022/10/30 04:44:03;;;;;;;11.03;6.57;;;16.30;99.90;;;;;;4951678;28;20209;-75
2022/10/30 04:46:30;;;;;;;10.20;6.97;;;16.30;99.90;;;;;;4953715;28;20183;-75
2022/10/30 04:48:56;;;;;;;11.37;7.03;;;16.30;99.90;;;;;;4966699;28;20264;-75
2022/10/30 04:51:22;;;;;;;14.40;6.40;;;16.30;99.90;;;;;;4971771;28;20467;-76
2022/10/30 04:53:48;;;;;;;12.60;7.10;;;16.30;99.90;;;;;;4962017;28;20199;-76
2022/10/30 04:56:15;;;;;;;10.00;6.63;;;16.30;99.90;;;;;;4960491;28;20514;-76
2022/10/30 04:58:41;;;;;;;10.37;6.40;;;16.20;99.90;;;;;;4956618;28;20186;-76
2022/10/30 05:01:06;;;;;;;13.30;6.23;;;16.20;99.90;;;;;;4952128;28;20470;-77
2022/10/30 05:03:32;;;;;;;11.87;6.63;;;16.20;99.90;;;;;;4966049;28;20193;-76
2022/10/30 05:06:06;;;;;;;12.80;7.13;;;16.20;99.90;;;;;;4973272;28;20210;-75
2022/10/30 05:08:32;;;;;;;7.70;6.23;;;16.20;99.90;;;;;;4982543;28;21110;-75
2022/10/30 05:10:58;;;;;;;8.83;6.13;;;16.20;99.90;;;;;;4952823;28;20469;-76
2022/10/30 05:13:24;;;;;;;12.03;6.50;;;16.20;99.90;;;;;;4976760;28;20539;-76
2022/10/30 05:15:50;;;;;;;9.77;6.00;;;16.10;99.90;;;;;;4965131;28;20957;-76
2022/10/30 05:18:15;;;;;;;16.10;7.33;;;16.10;99.90;;;;;;4974075;28;20186;-76
2022/10/30 05:20:41;;;;;;;14.77;7.00;;;16.10;99.90;;;;;;4969683;28;20286;-76
2022/10/30 05:23:07;;;;;;;8.90;5.80;;;16.10;99.90;;;;;;4950904;28;20183;-76
2022/10/30 05:25:34;;;;;;;9.03;6.83;;;16.10;99.90;;;;;;4963166;28;20187;-76
2022/10/30 05:28:02;;;;;;;12.40;6.30;;;16.10;99.90;;;;;;4954144;28;20458;-76
2022/10/30 05:30:29;;;;;;;9.07;5.60;;;16.00;99.90;;;;;;4956735;28;20999;-75
2022/10/30 05:33:04;;;;;;;12.90;5.70;;;16.00;99.90;;;;;;4968693;28;20465;-75
2022/10/30 05:35:34;;;;;;;14.20;6.40;;;16.00;99.90;;;;;;4973540;28;20469;-76
2022/10/30 05:38:00;;;;;;;11.70;5.97;;;16.00;99.90;;;;;;4975797;28;20485;-76
2022/10/30 05:40:27;;;;;;;10.33;6.07;;;16.00;99.90;;;;;;4961119;28;20457;-76
2022/10/30 05:42:52;;;;;;;10.97;5.70;;;15.90;99.90;;;;;;4963741;28;20446;-76
2022/10/30 05:45:19;;;;;;;13.00;5.93;;;15.90;99.90;;;;;;4969769;28;20497;-76
2022/10/30 05:47:57;;;;;;;13.63;5.63;;;15.90;99.90;;;;;;4977905;28;20187;-76
2022/10/30 05:50:23;;;;;;;9.17;6.20;;;15.90;99.90;;;;;;4985784;28;20465;-76
2022/10/30 05:52:48;;;;;;;8.90;6.03;;;15.90;99.90;;;;;;4950071;28;20544;-76
2022/10/30 05:55:14;;;;;;;8.97;5.83;;;15.90;99.90;;;;;;4974051;28;20632;-76
2022/10/30 05:57:39;;;;;;;7.33;5.60;;;15.90;99.90;;;;;;4958389;28;20214;-76
2022/10/30 06:00:06;;;;;;;8.97;5.40;;;15.80;99.90;;;;;;4963820;28;20620;-76
2022/10/30 06:02:31;;;;;;;12.10;6.03;;;15.80;99.90;;;;;;4971497;28;20176;-76
2022/10/30 06:04:57;;;;;;;16.93;6.70;;;15.80;99.90;;;;;;4959261;28;20444;-75
2022/10/30 06:07:22;;;;;;;8.10;6.60;;;15.80;99.90;;;;;;4968533;28;20217;-76
2022/10/30 06:09:48;;;;;;;15.10;7.27;;;15.80;99.90;;;;;;4969430;28;20215;-75
2022/10/30 06:12:14;;;;;;;11.37;7.23;;;15.80;99.90;;;;;;4963385;28;20194;-76
2022/10/30 06:14:39;;;;;;;13.83;7.93;;;15.80;99.90;;;;;;4966831;28;20203;-76
2022/10/30 06:17:05;;;;;;;14.50;6.50;;;15.80;99.90;;;;;;4965302;28;20232;-76
2022/10/30 06:19:30;;;;;;;15.30;7.77;;;15.80;99.90;;;;;;4961893;28;20643;-75
2022/10/30 06:21:56;;;;;;;11.43;6.20;;;15.70;99.90;;;;;;4974349;28;20187;-76
2022/10/30 06:24:21;;;;;;;6.43;5.10;;;15.70;99.90;;;;;;4960952;28;20198;-76
2022/10/30 06:26:48;;;;;;;12.70;5.53;;;15.70;99.90;;;;;;4977682;28;20875;-75
2022/10/30 06:29:13;;;;;;;10.33;6.47;;;15.70;99.90;;;;;;4955430;28;20183;-75
2022/10/30 06:31:39;;;;;;;17.40;7.83;;;15.70;99.90;;;;;;4975746;28;20961;-76
2022/10/30 06:34:05;;;;;;;27.57;17.30;;;15.70;99.90;;;;;;4953692;28;21170;-76
2022/10/30 06:36:30;;;;;;;55.47;30.37;;;15.70;99.90;;;;;;4978193;28;20913;-77
2022/10/30 06:38:56;;;;;;;47.83;26.60;;;15.70;99.90;;;;;;4969361;28;20187;-77
2022/10/30 06:41:22;;;;;;;31.70;17.03;;;15.70;99.90;;;;;;4979086;28;20301;-76
2022/10/30 06:43:47;;;;;;;39.70;23.43;;;15.70;99.90;;;;;;4964317;28;20270;-76
2022/10/30 06:46:18;;;;;;;24.50;12.70;;;15.70;99.90;;;;;;4956534;28;20190;-75
2022/10/30 06:48:43;;;;;;;13.67;9.00;;;15.70;99.90;;;;;;4971643;28;20183;-74
2022/10/30 06:51:13;;;;;;;22.53;12.57;;;15.70;99.90;;;;;;4962985;28;20465;-74
2022/10/30 06:53:38;;;;;;;23.50;10.43;;;15.70;99.90;;;;;;4989015;28;21136;-75
2022/10/30 06:56:04;;;;;;;13.17;9.27;;;15.70;99.90;;;;;;4960330;28;20462;-75
2022/10/30 06:58:30;;;;;;;15.00;8.57;;;15.70;99.90;;;;;;4971799;28;20190;-75
2022/10/30 07:00:59;;;;;;;15.80;7.37;;;15.70;99.90;;;;;;4960442;28;20203;-76
2022/10/30 07:03:25;;;;;;;11.20;6.10;;;15.80;99.90;;;;;;4956287;28;20636;-76
2022/10/30 07:05:51;;;;;;;12.33;7.23;;;15.80;99.90;;;;;;4970429;28;20436;-75
2022/10/30 07:08:16;;;;;;;11.60;5.60;;;15.80;99.90;;;;;;4966761;28;20263;-75
2022/10/30 07:10:42;;;;;;;12.13;5.80;;;15.80;99.90;;;;;;4978734;28;20221;-74
2022/10/30 07:13:08;;;;;;;8.20;6.33;;;15.80;99.90;;;;;;4965759;28;20218;-74
2022/10/30 07:15:33;;;;;;;9.37;5.60;;;15.80;99.90;;;;;;4983920;28;20218;-76
2022/10/30 07:18:03;;;;;;;15.10;6.30;;;15.90;99.90;;;;;;4969988;28;20453;-75
2022/10/30 07:20:30;;;;;;;18.70;5.67;;;15.90;99.90;;;;;;4956995;28;20581;-74
2022/10/30 07:22:56;;;;;;;11.20;5.87;;;15.90;99.90;;;;;;4960757;28;20429;-74
2022/10/30 07:25:21;;;;;;;9.63;6.40;;;15.90;99.90;;;;;;4958657;28;20444;-74
2022/10/30 07:27:49;;;;;;;7.90;5.43;;;15.90;99.90;;;;;;4964614;28;20190;-74
2022/10/30 07:30:18;;;;;;;12.57;6.67;;;16.00;99.90;;;;;;4953411;28;20715;-76
2022/10/30 07:32:44;;;;;;;11.07;5.10;;;16.00;99.90;;;;;;4957791;28;20437;-75
2022/10/30 07:35:12;;;;;;;13.90;6.33;;;16.00;99.90;;;;;;4956795;28;20461;-75
2022/10/30 07:37:39;;;;;;;8.80;6.83;;;16.00;99.90;;;;;;4960824;28;20574;-75
2022/10/30 07:40:05;;;;;;;8.90;5.93;;;16.10;99.90;;;;;;4952394;28;20459;-76
2022/10/30 07:42:32;;;;;;;10.87;5.57;;;16.10;99.90;;;;;;4956518;28;20466;-76
2022/10/30 07:44:58;;;;;;;7.77;5.70;;;16.10;99.90;;;;;;4951675;28;20871;-75
2022/10/30 07:47:23;;;;;;;9.47;5.77;;;16.20;99.90;;;;;;4952320;28;20451;-76
2022/10/30 07:49:49;;;;;;;11.13;6.07;;;16.20;99.90;;;;;;4961363;28;20237;-74
2022/10/30 07:52:14;;;;;;;10.57;5.87;;;16.20;99.90;;;;;;4961035;28;20230;-74
2022/10/30 07:54:40;;;;;;;8.27;5.30;;;16.30;99.90;;;;;;4957652;28;20623;-75
2022/10/30 07:57:06;;;;;;;10.53;5.63;;;16.30;99.90;;;;;;4966013;28;20190;-75
2022/10/30 07:59:31;;;;;;;13.00;5.73;;;16.40;99.90;;;;;;4955373;28;20179;-75
2022/10/30 08:01:57;;;;;;;9.40;4.87;;;16.40;99.90;;;;;;4953813;28;20194;-75
2022/10/30 08:04:22;;;;;;;14.20;5.63;;;16.40;99.90;;;;;;4953601;28;20283;-76
2022/10/30 08:06:48;;;;;;;15.73;5.67;;;16.50;99.90;;;;;;4952852;28;20273;-77
2022/10/30 08:09:13;;;;;;;8.47;5.40;;;16.50;99.90;;;;;;4955717;28;20600;-76
2022/10/30 08:11:39;;;;;;;11.83;5.00;;;16.60;99.90;;;;;;4968612;28;20699;-75
2022/10/30 08:14:04;;;;;;;12.23;6.23;;;16.70;99.90;;;;;;4956096;28;20202;-76
2022/10/30 08:16:30;;;;;;;10.93;5.60;;;16.70;99.90;;;;;;4959409;28;20174;-78
2022/10/30 08:18:55;;;;;;;45.03;18.87;;;16.70;99.90;;;;;;4955174;28;20236;-77
2022/10/30 08:21:21;;;;;;;55.20;25.23;;;16.80;99.90;;;;;;4955294;28;20218;-77
2022/10/30 08:23:46;;;;;;;28.23;13.43;;;16.90;99.90;;;;;;4953747;28;20336;-77
2022/10/30 08:26:12;;;;;;;20.00;9.37;;;16.90;99.90;;;;;;4954970;28;20187;-77
2022/10/30 08:28:38;;;;;;;17.10;9.20;;;16.90;99.90;;;;;;4959098;28;20301;-76
2022/10/30 08:31:04;;;;;;;13.53;7.97;;;17.00;99.90;;;;;;4952003;28;20462;-75
2022/10/30 08:33:30;;;;;;;16.97;7.60;;;17.00;99.90;;;;;;4956056;28;20624;-76
2022/10/30 08:35:58;;;;;;;12.33;7.87;;;17.10;99.90;;;;;;4948121;28;22139;-76
2022/10/30 08:38:24;;;;;;;17.33;6.53;;;17.10;99.90;;;;;;4954303;28;20449;-75
2022/10/30 08:40:50;;;;;;;17.30;7.20;;;17.20;99.90;;;;;;4958658;28;20520;-75
2022/10/30 08:43:16;;;;;;;16.23;7.10;;;17.20;99.90;;;;;;4960338;28;20438;-76
2022/10/30 08:45:42;;;;;;;16.10;7.33;;;17.30;99.90;;;;;;4954678;28;20966;-76
2022/10/30 08:48:14;;;;;;;12.00;6.90;;;17.40;99.90;;;;;;4959682;28;20472;-75
2022/10/30 08:50:40;;;;;;;15.50;6.70;;;17.40;99.90;;;;;;4960889;28;20978;-75
2022/10/30 08:53:12;;;;;;;11.20;6.37;;;17.50;99.90;;;;;;4956327;28;20460;-75
2022/10/30 08:55:38;;;;;;;10.37;6.17;;;17.50;99.90;;;;;;4953604;28;20256;-71
2022/10/30 08:58:03;;;;;;;11.50;6.80;;;17.60;99.90;;;;;;4955118;28;20439;-72
2022/10/30 09:00:30;;;;;;;17.40;6.70;;;17.60;99.90;;;;;;4968587;28;20203;-72
2022/10/30 09:02:56;;;;;;;12.83;6.50;;;17.70;99.90;;;;;;4952540;28;20175;-72
2022/10/30 09:05:21;;;;;;;12.13;6.90;;;17.70;99.90;;;;;;4959293;28;20452;-72
2022/10/30 09:07:47;;;;;;;13.23;7.07;;;17.80;99.90;;;;;;4941279;28;20978;-72
2022/10/30 09:10:13;;;;;;;10.70;6.00;;;17.80;99.90;;;;;;4958249;28;20278;-71
2022/10/30 09:12:39;;;;;;;13.50;6.83;;;17.90;99.90;;;;;;4973763;28;20206;-71
2022/10/30 09:15:06;;;;;;;13.27;6.43;;;18.00;99.90;;;;;;4955035;28;20457;-71
2022/10/30 09:17:31;;;;;;;13.07;6.17;;;18.00;99.90;;;;;;4970894;28;20281;-71
2022/10/30 09:19:57;;;;;;;10.50;5.70;;;18.10;99.90;;;;;;4960030;28;20461;-73
2022/10/30 09:22:23;;;;;;;10.33;5.70;;;18.10;99.90;;;;;;4956913;28;20182;-71
2022/10/30 09:24:48;;;;;;;10.67;6.40;;;18.20;99.90;;;;;;4951787;28;20545;-73
2022/10/30 09:27:14;;;;;;;11.17;5.20;;;18.30;99.90;;;;;;4957154;28;20183;-72
2022/10/30 09:29:39;;;;;;;12.27;6.10;;;18.30;99.90;;;;;;4945376;28;20217;-71
2022/10/30 09:32:09;;;;;;;11.50;5.57;;;18.40;99.90;;;;;;4950111;28;20198;-71
2022/10/30 09:34:36;;;;;;;16.77;5.40;;;18.50;99.90;;;;;;4950360;28;20762;-73
2022/10/30 09:37:02;;;;;;;8.50;5.77;;;18.60;99.90;;;;;;4943398;28;21246;-73
2022/10/30 09:39:29;;;;;;;12.80;5.10;;;18.70;99.90;;;;;;4962965;28;20445;-72
2022/10/30 09:42:12;;;;;;;9.70;6.23;;;18.60;99.90;;;;;;4952163;28;20210;-72
2022/10/30 09:45:25;;;;;;;12.67;6.13;;;18.70;99.90;;;;;;4965340;28;21028;-72
2022/10/30 09:48:18;;;;;;;12.20;6.13;;;18.80;99.90;;;;;;5012398;28;20442;-72
2022/10/30 09:51:20;;;;;;;9.73;5.80;;;18.90;99.90;;;;;;4982675;28;20445;-72
2022/10/30 09:54:14;;;;;;;8.23;4.40;;;19.00;99.90;;;;;;4979946;28;20487;-72
2022/10/30 09:57:06;;;;;;;14.87;5.07;;;19.10;99.90;;;;;;4969164;28;20449;-72
2022/10/30 09:59:48;;;;;;;13.93;5.60;;;19.10;99.90;;;;;;4966091;28;20449;-72
2022/10/30 10:02:29;;;;;;;12.30;5.90;;;19.20;99.90;;;;;;4966606;28;20899;-73
2022/10/30 10:05:00;;;;;;;7.97;4.40;;;19.30;99.90;;;;;;4949532;28;20816;-67
2022/10/30 10:07:33;;;;;;;12.13;5.93;;;19.40;99.90;;;;;;4946548;28;20569;-68
2022/10/30 10:10:04;;;;;;;11.37;6.03;;;19.50;99.90;;;;;;4953789;28;20493;-68
2022/10/30 10:12:36;;;;;;;13.50;5.33;;;19.50;99.90;;;;;;4952512;28;20455;-71
2022/10/30 10:15:10;;;;;;;12.73;4.63;;;19.60;99.90;;;;;;4962620;28;20465;-71
2022/10/30 10:17:40;;;;;;;12.00;4.90;;;19.60;99.90;;;;;;4958836;28;20457;-71
2022/10/30 10:20:15;;;;;;;10.53;5.17;;;19.70;99.90;;;;;;4971182;28;20481;-71
2022/10/30 10:22:50;;;;;;;8.50;4.93;;;19.80;99.90;;;;;;4954004;28;20564;-71
2022/10/30 10:25:18;;;;;;;8.30;4.43;;;19.90;99.90;;;;;;4951461;28;20923;-71
2022/10/30 10:28:05;;;;;;;8.60;5.17;;;19.90;99.90;;;;;;4958426;28;20872;-71
2022/10/30 10:30:54;;;;;;;13.43;5.30;;;20.00;99.90;;;;;;4967705;28;20522;-70
2022/10/30 10:33:29;;;;;;;5.70;4.50;;;20.10;99.90;;;;;;4961277;28;20948;-72
2022/10/30 10:36:11;;;;;;;8.40;4.90;;;20.10;99.90;;;;;;4954939;28;20483;-71
2022/10/30 10:38:58;;;;;;;8.40;4.40;;;20.20;99.90;;;;;;4973927;28;20968;-71
2022/10/30 10:41:36;;;;;;;11.30;5.27;;;20.30;99.90;;;;;;4962670;28;20527;-70
2022/10/30 10:44:20;;;;;;;10.70;4.83;;;20.30;99.90;;;;;;4961202;28;20811;-71
2022/10/30 10:47:24;;;;;;;8.10;4.13;;;20.40;99.90;;;;;;4963007;28;20509;-72
2022/10/30 10:50:12;;;;;;;7.93;5.10;;;20.50;99.90;;;;;;4980104;28;20465;-72
2022/10/30 10:52:45;;;;;;;10.73;5.10;;;20.60;99.90;;;;;;4970091;28;20437;-72
2022/10/30 10:55:23;;;;;;;9.23;4.80;;;20.80;99.90;;;;;;4981062;28;20462;-72
2022/10/30 10:57:51;;;;;;;11.43;5.00;;;20.80;99.90;;;;;;4958534;28;20860;-72
2022/10/30 11:00:19;;;;;;;11.00;6.03;;;20.80;99.90;;;;;;4977461;28;21022;-73
2022/10/30 11:03:08;;;;;;;10.00;4.00;;;20.90;99.90;;;;;;4955817;28;20538;-73
2022/10/30 11:06:00;;;;;;;11.60;4.60;;;20.90;99.90;;;;;;4969105;28;20529;-74
2022/10/30 11:08:31;;;;;;;9.87;4.90;;;21.10;99.90;;;;;;4967113;28;20446;-75
2022/10/30 11:11:01;;;;;;;17.20;5.27;;;21.10;99.90;;;;;;4955080;28;20952;-75
2022/10/30 11:13:30;;;;;;;6.57;3.90;;;21.10;99.90;;;;;;4979150;28;20450;-74
2022/10/30 11:16:15;;;;;;;9.40;5.20;;;21.20;99.90;;;;;;4973688;28;20477;-74
2022/10/30 11:18:43;;;;;;;11.73;5.03;;;21.30;99.90;;;;;;4957654;28;20856;-76
2022/10/30 11:21:16;;;;;;;8.23;5.40;;;21.40;99.90;;;;;;4956102;28;20703;-76
2022/10/30 11:23:48;;;;;;;10.97;5.23;;;21.40;99.90;;;;;;4970329;28;20507;-75
2022/10/30 11:26:16;;;;;;;6.70;4.30;;;21.50;99.90;;;;;;4948798;28;20433;-76
2022/10/30 11:28:45;;;;;;;5.70;4.40;;;21.60;99.90;;;;;;4959149;28;20496;-75
2022/10/30 11:31:26;;;;;;;10.13;5.20;;;21.70;99.90;;;;;;4970853;28;20459;-75
2022/10/30 11:33:53;;;;;;;8.57;4.37;;;21.70;99.90;;;;;;4955234;28;20857;-75
2022/10/30 11:36:24;;;;;;;11.30;5.30;;;21.80;99.90;;;;;;4955145;28;20978;-75
2022/10/30 11:38:50;;;;;;;7.63;4.57;;;21.90;99.90;;;;;;4959475;28;20464;-76
2022/10/30 11:41:16;;;;;;;9.77;5.00;;;22.10;99.90;;;;;;4976315;28;21021;-75
2022/10/30 11:43:43;;;;;;;7.33;4.70;;;22.20;99.90;;;;;;4960448;28;20495;-76
2022/10/30 11:46:18;;;;;;;9.63;5.40;;;22.30;99.90;;;;;;4952836;28;20478;-75
2022/10/30 11:48:44;;;;;;;9.50;4.60;;;22.60;99.90;;;;;;4953707;28;20868;-75
2022/10/30 11:51:12;;;;;;;8.27;4.57;;;22.80;99.90;;;;;;4965468;28;20557;-74
2022/10/30 11:53:47;;;;;;;10.53;6.10;;;22.90;99.90;;;;;;4963149;28;20492;-75
2022/10/30 11:56:16;;;;;;;12.80;6.00;;;23.00;99.90;;;;;;4955984;28;21149;-75
2022/10/30 11:58:49;;;;;;;12.33;4.77;;;23.30;99.90;;;;;;4958275;28;20467;-76
2022/10/30 12:01:35;;;;;;;10.37;5.00;;;23.50;99.90;;;;;;4947329;28;20457;-75
2022/10/30 12:04:25;;;;;;;15.67;5.73;;;23.80;99.90;;;;;;4966541;28;20434;-75
2022/10/30 12:07:12;;;;;;;8.30;4.93;;;24.40;99.90;;;;;;4950439;28;20836;-75
2022/10/30 12:09:43;;;;;;;10.10;4.60;;;24.90;99.90;;;;;;4948763;28;20544;-75
2022/10/30 12:12:20;;;;;;;11.23;5.00;;;25.30;99.90;;;;;;4951253;28;20445;-75
2022/10/30 12:14:46;;;;;;;10.27;6.00;;;25.50;99.90;;;;;;4954157;28;20457;-74
2022/10/30 12:17:14;;;;;;;8.00;5.20;;;26.00;99.90;;;;;;4953012;28;20500;-74
2022/10/30 12:19:49;;;;;;;12.53;5.10;;;26.40;99.90;;;;;;4960301;28;20303;-75
2022/10/30 12:22:45;;;;;;;8.80;4.93;;;26.60;99.90;;;;;;4949750;28;21045;-75
2022/10/30 12:25:30;;;;;;;10.50;4.73;;;27.00;99.90;;;;;;4961988;28;20445;-75
2022/10/30 12:28:02;;;;;;;9.30;5.17;;;27.40;99.90;;;;;;4941439;28;20500;-74
2022/10/30 12:30:31;;;;;;;10.40;5.20;;;27.60;99.90;;;;;;4944278;28;20617;-73
2022/10/30 12:33:02;;;;;;;9.30;4.93;;;27.90;99.90;;;;;;4962883;28;20454;-74
2022/10/30 12:35:47;;;;;;;11.00;5.63;;;28.20;99.90;;;;;;4951380;28;20512;-74
2022/10/30 12:38:31;;;;;;;7.50;5.40;;;28.40;99.90;;;;;;4950368;28;20434;-75
2022/10/30 12:41:07;;;;;;;12.13;6.13;;;28.70;99.90;;;;;;4950872;28;20777;-76
2022/10/30 12:43:35;;;;;;;9.40;5.37;;;28.70;99.90;;;;;;4954202;28;21157;-77
2022/10/30 12:46:40;;;;;;;6.90;4.50;;;28.70;99.90;;;;;;4950103;28;20462;-77
2022/10/30 12:49:24;;;;;;;7.60;4.80;;;29.00;99.90;;;;;;4949086;28;20442;-77
2022/10/30 12:52:05;;;;;;;9.60;4.70;;;29.60;99.90;;;;;;4952264;28;20450;-77